Republica Dominicana

vuelo de bajo nivel

                                                                                                                             VUELOS DE BAJO NIVEL DESDE SUPERFICIE HASTA 24,000 PIES.

 

  VALIDO DESDE 011200Z...……………………HASTA 020000ZSALIDA  Y  PUESTA  DEL  SOL  06:02 / 19:12 

 

SANTO DOMINGO FIR...PORT-AU-PRINCE FIR... HISPANIOLA...SCT025 SCT-BKN050

TOP ABV FL240. WDLY SCT SHRA. OTLK...VFR SHRA. WTRS...SCT025 SCT050. WDLY

SCT SHRA. OTLK...VFR SHRA.

 

5,000 FT.

10,000 FT.

18,000 FT.

24,000 FT.

MDSD

0705KT+19ºC

0805KT+09ºC

2605KT+07ºC

3215KT-17ºC

MTPP

0705KT+19ºC

0802KT+09ºC

3605KT+07ºC

3515KT-17ºC

TJSJ

1210KT+18ºC

1010KT+09ºC

0000KT+09ºC

2505KT-19ºC


TAF 

TAF MDPP 011000 0112/0212 00000KT 9999 FEW018 BECMG 0115/0117 08015KT=

TAF MDST 011000 0112/0212 13012KT 9999 SCT023 PROB30 0119/0201 6000 -TSRA FEW012CB BKN014 BECMG 0121/0123 04015KT=

TAF MDPC 011000 0112/0212 00000KT 9999 FEW018 BECMG 0112/0114 07005KT=

TAF MDBH 011000 0112/0212 13010KT 9999 FEW020=

TAF MDJB 011000 0112/0212 00000KT 9999 FEW018=

TAF MDSD 011000 0112/0212 02004KT 9999 FEW018=

TAF MDLR 011000 0112/0212 00000KT 9999 FEW018 BECMG 0113/0115 13010KT=

TAF MDCY 011000 0112/0212 00000KT 9999 FEW020=

TAF KMIA 010547Z 0106/0212 VRB05KT P6SM FEW030 SCT250 FM011500 08007KT P6SM SCT020 BKN250 FM011800 10013KT P6SM VCSH SCT025 BKN050 BKN250 FM020000 08009KT P6SM SCT030 BKN060 BKN250=

TAF KJFK 010834Z 0109/0212 34006KT P6SM SKC FM011000 31007KT P6SM SKC FM011400 29010KT P6SM FEW060 FM011700 26012G20KT P6SM BKN100 FM020200 30006KT P6SM BKN100=

TAF TJSJ 010536Z 0106/0206 09011KT P6SM VCSH FEW030 SCT050 FM011300 08012KT P6SM FEW035 SCT060 FM011600 07015G22KT P6SM VCSH SCT030 SCT060 FM012200 10008KT P6SM FEW035 SCT050=

TAF MUHA 010500Z 0106/0206 VRB03KT 9000 SCT020 TEMPO 0117/0123 VRB10KT 3000 TSRA FEW018CB BKN020 BECMG 0203/0205 VRB03KT=

TAF MUGM 0107/0207 VRB05KT 9999 FEW020 BKN250 QNH2999INS FM011400 17008KT 9999 FEW020 FEW120 SCT250 QNH2996INS BECMG 0117/0119 13010KT 9999 FEW030 FEW250 QNH2991INS FM012200 01010KT 9999 SCT025 SCT250 QNH3000INS FM020000 VRB06KT 9999 SCT025 SCT250 QNH3005INS T25/0110Z T33/0120Z FN00225=

TAF TNCC 010501Z 0106/0206 11011KT 9999 SCT016 TEMPO 0106/0118 BKN014 SCT030 PROB30 0110/0116 10020KT 6000 SHRA FEW012CB= 

TAF MKJP 010515Z 0106/0206 12015KT 9999 FEW022 BECMG 0114/0116 15022KT TEMPO 0118/0124 FEW022 FEW024CB BECMG 0201/0203 12015KT=

 

PREPARADO POR: BILLY DE LA CRUZ. 01 de JUNIO del 2020.-




Tamaño letra

Contraste

Otros